Time;durP1;ratioP1;P1;durP2;ratioP2;P2;SDS_P1;SDS_P2;PMS_P1;PMS_P2;Temp;Humidity;BMP_temperature;BMP_pressure;BME280_temperature;BME280_humidity;BME280_pressure;Samples;Min_cycle;Max_cycle;Signal;HPM_P1;HPM_P2
2022/02/04 00:05:51;;;;;;;12.40;2.00;;;;;;;6.97;100.00;101030.63;5070768;28;20079;-41
2022/02/04 00:25:11;;;;;;;11.60;2.80;;;;;;;7.02;100.00;101018.69;5071565;28;20051;-41
2022/02/04 00:27:39;;;;;;;17.35;3.03;;;;;;;7.05;100.00;100994.03;5070538;28;20386;-38
2022/02/04 00:30:15;;;;;;;14.43;3.03;;;;;;;7.10;100.00;101015.41;5070664;28;20048;-38
2022/02/04 00:32:45;;;;;;;17.48;3.20;;;;;;;7.15;100.00;100999.63;5070870;28;20122;-35
2022/02/04 00:35:23;;;;;;;16.88;2.63;;;;;;;7.21;100.00;100995.72;5069290;28;20421;-42
2022/02/04 00:37:59;;;;;;;16.40;2.88;;;;;;;7.23;100.00;100999.06;5071475;28;20055;-34
2022/02/04 00:40:30;;;;;;;13.52;2.55;;;;;;;7.26;100.00;101001.31;5070267;28;20051;-41
2022/02/04 00:43:02;;;;;;;17.40;3.63;;;;;;;7.29;100.00;100988.81;5070912;28;20540;-39
2022/02/04 00:45:36;;;;;;;9.18;2.47;;;;;;;7.31;100.00;100985.78;5071253;28;20285;-38
2022/02/04 00:48:34;;;;;;;11.70;2.30;;;;;;;7.32;100.00;100991.06;5070289;28;20051;-41
2022/02/04 00:51:09;;;;;;;13.13;2.72;;;;;;;7.33;100.00;100984.38;5063448;28;20052;-41
2022/02/04 00:53:46;;;;;;;14.45;2.70;;;;;;;7.38;100.00;100984.41;5071070;28;20048;-37
2022/02/04 00:56:21;;;;;;;10.93;2.20;;;;;;;7.37;100.00;100990.22;5070393;28;20516;-37
2022/02/04 01:26:24;;;;;;;14.55;2.83;;;;;;;7.37;100.00;100952.19;5070894;28;20040;-32
2022/02/04 01:28:53;;;;;;;19.15;2.90;;;;;;;7.43;100.00;100959.41;5059565;28;20050;-37
2022/02/04 01:31:23;;;;;;;17.20;2.85;;;;;;;7.41;100.00;100947.75;5069941;28;20040;-39
2022/02/04 01:33:53;;;;;;;14.88;2.83;;;;;;;7.43;100.00;100947.47;5070934;28;20041;-35
2022/02/04 01:36:21;;;;;;;13.23;2.70;;;;;;;7.42;100.00;100948.56;5071033;28;20044;-36
2022/02/04 01:38:49;;;;;;;16.45;2.95;;;;;;;7.44;100.00;100949.97;5069861;28;20045;-41
2022/02/04 01:41:17;;;;;;;14.57;3.13;;;;;;;7.44;100.00;100957.47;5070541;28;20044;-42
2022/02/04 01:43:45;;;;;;;17.42;3.20;;;;;;;7.45;100.00;100950.81;5070853;28;20048;-37
2022/02/04 01:46:14;;;;;;;16.70;2.72;;;;;;;7.45;100.00;100948.03;5074763;28;20110;-39
2022/02/04 01:48:42;;;;;;;16.83;2.70;;;;;;;7.43;100.00;100958.56;5073996;28;20079;-35
2022/02/04 01:51:13;;;;;;;16.08;3.28;;;;;;;7.43;100.00;100955.78;5073573;28;20044;-35
2022/02/04 01:53:41;;;;;;;13.57;2.92;;;;;;;7.39;100.00;100951.94;5074043;28;20049;-40
2022/02/04 01:56:12;;;;;;;18.00;3.47;;;;;;;7.39;100.00;100946.38;5074404;28;20421;-43
2022/02/04 01:58:41;;;;;;;16.35;2.55;;;;;;;7.35;100.00;100939.72;5073515;28;20123;-36
2022/02/04 02:01:10;;;;;;;13.60;2.70;;;;;;;7.35;100.00;100926.66;5073994;28;20076;-40
2022/02/04 02:03:38;;;;;;;16.58;3.35;;;;;;;7.37;100.00;100937.50;5074147;28;20040;-42
2022/02/04 02:06:10;;;;;;;13.73;2.72;;;;;;;7.37;100.00;100923.59;5072988;28;20481;-39
2022/02/04 02:08:41;;;;;;;19.38;2.67;;;;;;;7.36;100.00;100908.06;5074037;28;20055;-30
2022/02/04 02:11:10;;;;;;;22.77;2.92;;;;;;;7.36;100.00;100911.66;5073716;28;20044;-43
2022/02/04 02:13:45;;;;;;;17.85;2.70;;;;;;;7.36;100.00;100908.06;5063915;28;20581;-38
2022/02/04 02:16:36;;;;;;;14.30;2.72;;;;;;;7.34;100.00;100915.84;5073866;28;20056;-34
2022/02/04 02:33:29;;;;;;;15.60;2.80;;;;;;;7.35;100.00;100884.19;5063000;28;20045;-39
2022/02/04 02:36:24;;;;;;;13.45;2.80;;;;;;;7.36;100.00;100889.47;5072403;28;20040;-42
2022/02/04 02:44:43;;;;;;;22.50;3.38;;;;;;;7.34;100.00;100866.69;5031053;28;20141;-38
2022/02/04 02:47:24;;;;;;;17.38;3.05;;;;;;;7.35;100.00;100860.03;5064619;28;20056;-36
2022/02/04 02:55:39;;;;;;;23.03;3.00;;;;;;;7.38;100.00;100855.88;5020227;28;20056;-41
2022/02/04 02:58:11;;;;;;;17.40;2.95;;;;;;;7.37;100.00;100863.38;5073713;28;20044;-39
2022/02/04 03:03:30;;;;;;;19.33;2.92;;;;;;;7.39;100.00;100858.38;5069684;28;20048;-31
2022/02/04 03:05:58;;;;;;;17.48;2.70;;;;;;;7.41;100.00;100853.34;5072943;28;20093;-36
2022/02/04 03:08:27;;;;;;;25.98;3.08;;;;;;;7.40;100.00;100851.69;5071885;28;20044;-34
2022/02/04 03:10:58;;;;;;;25.77;3.35;;;;;;;7.40;100.00;100848.91;5072706;28;20051;-35
2022/02/04 03:13:27;;;;;;;21.50;3.33;;;;;;;7.42;100.00;100837.53;5073018;28;20055;-39
2022/02/04 03:16:00;;;;;;;28.70;3.67;;;;;;;7.42;100.00;100837.53;5072136;28;20048;-35
2022/02/04 03:18:31;;;;;;;17.45;3.08;;;;;;;7.41;100.00;100835.88;5072818;28;20062;-43
2022/02/04 03:21:04;;;;;;;19.98;3.35;;;;;;;7.40;100.00;100834.19;5072741;28;20099;-39
2022/02/04 03:23:36;;;;;;;22.80;3.47;;;;;;;7.43;100.00;100833.66;5071862;28;20049;-40
2022/02/04 03:26:09;;;;;;;17.70;2.92;;;;;;;7.42;100.00;100829.19;5063962;28;20044;-38
2022/02/04 03:28:38;;;;;;;18.42;2.95;;;;;;;7.40;100.00;100836.97;5072550;28;20055;-39
2022/02/04 03:31:07;;;;;;;20.40;3.13;;;;;;;7.42;100.00;100843.91;5071404;28;20477;-36
2022/02/04 03:33:36;;;;;;;21.25;3.00;;;;;;;7.44;100.00;100846.41;5072256;28;20072;-37
2022/02/04 03:36:04;;;;;;;25.20;3.28;;;;;;;7.45;100.00;100834.19;5071975;28;20056;-38
2022/02/04 03:38:32;;;;;;;21.67;3.03;;;;;;;7.44;100.00;100833.38;5072516;28;20067;-38
2022/02/04 03:40:59;;;;;;;24.95;3.08;;;;;;;7.46;100.00;100833.09;5072372;28;20135;-39
2022/02/04 03:43:28;;;;;;;24.83;3.20;;;;;;;7.46;100.00;100827.53;5071287;28;20056;-40
2022/02/04 03:45:56;;;;;;;25.13;3.20;;;;;;;7.47;100.00;100826.44;5072185;28;20079;-37
2022/02/04 03:48:24;;;;;;;24.90;3.40;;;;;;;7.45;100.00;100821.16;5071950;28;20048;-41
2022/02/04 03:50:52;;;;;;;25.88;3.92;;;;;;;7.47;100.00;100824.47;5071299;28;20055;-38
2022/02/04 03:53:20;;;;;;;23.58;3.22;;;;;;;7.46;100.00;100813.66;5071764;28;20570;-41
2022/02/04 03:55:48;;;;;;;23.75;2.92;;;;;;;7.46;100.00;100813.66;5071928;28;20414;-34
2022/02/04 03:58:15;;;;;;;19.88;3.35;;;;;;;7.45;100.00;100806.44;5069947;28;20051;-41
2022/02/04 04:00:44;;;;;;;24.30;3.55;;;;;;;7.46;100.00;100802.56;5071677;28;21209;-36
2022/02/04 04:03:12;;;;;;;25.48;3.75;;;;;;;7.45;100.00;100809.22;5072095;28;20135;-35
2022/02/04 04:05:45;;;;;;;20.15;3.40;;;;;;;7.43;100.00;100792.00;5070833;28;20497;-36
2022/02/04 04:08:14;;;;;;;27.45;3.10;;;;;;;7.44;100.00;100793.66;5071245;28;20486;-43
2022/02/04 04:10:43;;;;;;;31.98;4.28;;;;;;;7.44;100.00;100796.44;5071603;28;20408;-39
2022/02/04 04:13:12;;;;;;;20.52;3.90;;;;;;;7.40;100.00;100790.63;5070681;28;20066;-39
2022/02/04 04:15:40;;;;;;;24.67;3.53;;;;;;;7.44;100.00;100790.88;5071469;28;20515;-36
2022/02/04 04:18:12;;;;;;;25.88;3.30;;;;;;;7.44;100.00;100788.94;5071564;28;20048;-42
2022/02/04 04:20:41;;;;;;;23.85;3.33;;;;;;;7.46;100.00;100783.94;5071168;28;20098;-39
2022/02/04 04:23:09;;;;;;;21.88;3.33;;;;;;;7.47;100.00;100791.16;5071613;28;20051;-40
2022/02/04 04:25:38;;;;;;;23.40;3.17;;;;;;;7.48;100.00;100778.13;5070707;28;20060;-33
2022/02/04 04:28:06;;;;;;;22.33;3.28;;;;;;;7.47;100.00;100777.28;5070279;28;20044;-38
2022/02/04 04:30:37;;;;;;;26.98;3.83;;;;;;;7.47;100.00;100771.72;5070804;28;20106;-37
2022/02/04 04:33:05;;;;;;;24.85;3.70;;;;;;;7.47;100.00;100776.44;5070365;28;20488;-35
2022/02/04 04:35:35;;;;;;;20.67;3.25;;;;;;;7.47;100.00;100765.34;5071321;28;20084;-40
2022/02/04 04:38:10;;;;;;;21.58;3.35;;;;;;;7.46;100.00;100772.84;5071249;28;20053;-35
2022/02/04 04:40:54;;;;;;;30.77;3.78;;;;;;;7.45;100.00;100767.56;5070697;28;20048;-42
2022/02/04 04:43:37;;;;;;;22.52;3.30;;;;;;;7.45;100.00;100756.47;5071175;28;20040;-34
2022/02/04 04:46:33;;;;;;;;;;;;;;;7.41;100.00;100758.97;5071501;28;20052;-35
2022/02/04 05:28:16;;;;;;;22.63;3.20;;;;;;;7.54;100.00;100713.97;5069218;28;20135;-39
2022/02/04 05:30:44;;;;;;;19.20;2.83;;;;;;;7.55;100.00;100731.47;5073791;28;20056;-38
2022/02/04 05:33:12;;;;;;;23.65;3.30;;;;;;;7.54;100.00;100725.09;5074845;28;20051;-34
2022/02/04 05:35:40;;;;;;;31.48;3.72;;;;;;;7.55;100.00;100710.09;5073941;28;20054;-34
2022/02/04 05:38:11;;;;;;;21.58;3.17;;;;;;;7.55;100.00;100698.16;5074246;28;20432;-38
2022/02/04 05:40:43;;;;;;;31.63;3.40;;;;;;;7.56;100.00;100705.38;5074541;28;20057;-38
2022/02/04 05:43:18;;;;;;;26.80;3.47;;;;;;;7.58;100.00;100694.81;5073816;28;20072;-36
2022/02/04 05:45:54;;;;;;;27.20;3.83;;;;;;;7.55;100.00;100698.16;5066015;28;20139;-36
2022/02/04 05:48:23;;;;;;;23.27;3.42;;;;;;;7.54;100.00;100708.41;5074337;28;20044;-41
2022/02/04 05:51:03;;;;;;;29.15;3.53;;;;;;;7.53;100.00;100690.09;5064140;28;20430;-35
2022/02/04 05:53:37;;;;;;;19.52;3.05;;;;;;;7.54;100.00;100685.38;5074170;28;20060;-38
2022/02/04 05:56:14;;;;;;;23.90;3.50;;;;;;;7.52;100.00;100687.59;5064622;28;20052;-40
2022/02/04 05:58:53;;;;;;;22.42;4.07;;;;;;;7.49;100.00;100685.38;5073617;28;20505;-37
2022/02/04 06:01:36;;;;;;;27.15;4.00;;;;;;;7.47;100.00;100698.72;5066105;28;20071;-43
2022/02/04 06:04:18;;;;;;;25.92;3.53;;;;;;;7.47;100.00;100690.38;5073734;28;20308;-38
2022/02/04 06:07:08;;;;;;;33.33;3.75;;;;;;;7.47;100.00;100693.16;5074557;28;20053;-38
2022/02/04 06:22:06;;;;;;;30.20;3.53;;;;;;;7.44;100.00;100669.56;5072393;28;20411;-41
2022/02/04 06:23:32;;;;;;;27.13;3.63;;;;;;;7.39;100.00;100672.38;5071416;28;20052;-35
2022/02/04 06:26:04;;;;;;;23.33;3.83;;;;;;;7.38;100.00;100669.91;5071457;28;20060;-38
2022/02/04 06:28:35;;;;;;;32.65;3.60;;;;;;;7.35;100.00;100664.91;5072538;28;20371;-35
2022/02/04 06:31:04;;;;;;;22.10;3.30;;;;;;;7.31;100.00;100659.09;5072369;28;20124;-41
2022/02/04 06:33:33;;;;;;;21.60;3.38;;;;;;;7.30;100.00;100662.97;5072383;28;20068;-42
2022/02/04 06:36:01;;;;;;;19.17;2.90;;;;;;;7.31;100.00;100661.03;5073915;28;20040;-33
2022/02/04 06:38:29;;;;;;;25.55;3.75;;;;;;;7.27;100.00;100652.44;5073349;28;20048;-36
2022/02/04 06:40:56;;;;;;;27.73;4.22;;;;;;;7.26;100.00;100648.81;5072991;28;20032;-40
2022/02/04 06:43:24;;;;;;;23.40;3.55;;;;;;;7.29;100.00;100652.16;5073063;28;20047;-37
2022/02/04 06:45:53;;;;;;;22.00;3.33;;;;;;;7.28;100.00;100654.09;5071421;28;20460;-39
2022/02/04 06:48:23;;;;;;;26.15;3.40;;;;;;;7.28;100.00;100636.59;5072005;28;20070;-36
2022/02/04 06:50:51;;;;;;;23.83;3.78;;;;;;;7.30;100.00;100640.75;5071494;28;20028;-40
2022/02/04 06:53:21;;;;;;;18.10;2.97;;;;;;;7.28;100.00;100643.00;5070846;28;20090;-40
2022/02/04 06:55:49;;;;;;;18.80;3.05;;;;;;;7.30;100.00;100651.03;5073361;28;20048;-43
2022/02/04 06:58:16;;;;;;;27.60;3.75;;;;;;;7.33;100.00;100658.81;5072922;28;20059;-40
2022/02/04 07:00:44;;;;;;;25.00;3.13;;;;;;;7.33;100.00;100659.63;5072110;28;20127;-31
2022/02/04 07:03:16;;;;;;;27.48;3.00;;;;;;;7.36;100.00;100652.69;5072900;28;20468;-40
2022/02/04 07:05:54;;;;;;;23.37;2.97;;;;;;;7.37;100.00;100648.81;5073071;28;20143;-40
2022/02/04 07:08:41;;;;;;;24.58;3.58;;;;;;;7.40;100.00;100650.97;5063516;28;20295;-37
2022/02/04 07:11:24;;;;;;;19.48;3.05;;;;;;;7.40;100.00;100645.44;5072768;28;20048;-37
2022/02/04 07:14:13;;;;;;;27.02;3.58;;;;;;;7.40;100.00;100642.66;5065095;28;20048;-39
2022/02/04 07:16:55;;;;;;;26.25;3.22;;;;;;;7.40;100.00;100637.94;5072479;28;20041;-39
2022/02/04 07:22:09;;;;;;;21.58;3.10;;;;;;;7.41;100.00;100624.88;5071229;28;20040;-40
2022/02/04 07:24:37;;;;;;;20.77;3.28;;;;;;;7.42;100.00;100619.06;5071259;28;20052;-37
2022/02/04 07:27:05;;;;;;;27.77;3.85;;;;;;;7.45;100.00;100614.88;5071460;28;20044;-44
2022/02/04 07:29:34;;;;;;;25.48;3.70;;;;;;;7.44;100.00;100602.13;5070919;28;20048;-40
2022/02/04 07:32:07;;;;;;;23.95;3.65;;;;;;;7.43;100.00;100614.34;5070844;28;20084;-39
2022/02/04 07:34:44;;;;;;;25.55;3.85;;;;;;;7.43;100.00;100608.78;5070855;28;20049;-40
2022/02/04 07:42:43;;;;;;;22.10;3.47;;;;;;;7.40;100.00;100601.84;5070838;28;20040;-35
2022/02/04 07:45:10;;;;;;;25.10;3.67;;;;;;;7.43;100.00;100597.69;5071992;28;20048;-40
2022/02/04 07:47:38;;;;;;;28.38;3.90;;;;;;;7.43;100.00;100590.19;5071910;28;20053;-33
2022/02/04 07:50:09;;;;;;;18.92;3.38;;;;;;;7.46;100.00;100595.16;5070926;28;20120;-34
2022/02/04 07:52:36;;;;;;;21.65;3.20;;;;;;;7.45;100.00;100599.06;5071845;28;20048;-34
2022/02/04 07:55:05;;;;;;;26.85;4.00;;;;;;;7.47;100.00;100584.91;5071963;28;20572;-36
2022/02/04 07:57:34;;;;;;;28.08;3.47;;;;;;;7.48;100.00;100586.56;5070973;28;20060;-37
2022/02/04 08:00:03;;;;;;;31.10;3.90;;;;;;;7.44;100.00;100575.19;5071837;28;20067;-34
2022/02/04 08:02:32;;;;;;;32.85;5.30;;;;;;;7.44;100.00;100575.19;5071231;28;20497;-40
2022/02/04 08:05:04;;;;;;;25.98;3.50;;;;;;;7.47;100.00;100582.13;5070231;28;20045;-33
2022/02/04 08:07:42;;;;;;;27.57;3.60;;;;;;;7.47;100.00;100580.16;5070803;28;20044;-32
2022/02/04 08:10:22;;;;;;;24.80;4.00;;;;;;;7.48;100.00;100592.09;5070588;28;20052;-42
2022/02/04 08:13:18;;;;;;;22.95;3.50;;;;;;;7.48;100.00;100578.22;5070376;28;20455;-36
2022/02/04 08:16:14;;;;;;;29.50;4.10;;;;;;;7.48;100.00;100583.78;5061672;28;20155;-38
2022/02/04 08:21:45;;;;;;;26.03;3.83;;;;;;;7.51;100.00;100564.59;5067753;28;20072;-36
2022/02/04 08:24:32;;;;;;;24.98;3.40;;;;;;;7.53;100.00;100551.28;5068271;28;20515;-39
2022/02/04 08:27:23;;;;;;;25.85;4.38;;;;;;;7.53;100.00;100556.81;5070257;28;20087;-38
2022/02/04 08:32:46;;;;;;;28.40;3.72;;;;;;;7.58;100.00;100542.91;5043598;28;20040;-36
2022/02/04 08:35:31;;;;;;;23.98;3.83;;;;;;;7.63;100.00;100552.31;5070031;28;20047;-37
2022/02/04 08:38:18;;;;;;;21.23;2.92;;;;;;;7.64;100.00;100540.91;5068203;28;20381;-41
2022/02/04 08:49:26;;;;;;;20.63;3.38;;;;;;;7.60;100.00;100534.28;5070172;28;20113;-41
2022/02/04 08:52:11;;;;;;;24.42;3.38;;;;;;;7.60;100.00;100531.50;5068375;28;20044;-32
2022/02/04 08:54:43;;;;;;;24.25;4.03;;;;;;;7.61;100.00;100525.66;5069929;28;20055;-36
2022/02/04 08:57:23;;;;;;;30.15;4.20;;;;;;;7.59;100.00;100532.66;5071332;28;20053;-39
2022/02/04 08:59:59;;;;;;;20.88;3.40;;;;;;;7.61;100.00;100522.06;5069974;28;20492;-38
2022/02/04 09:02:35;;;;;;;24.85;3.33;;;;;;;7.60;100.00;100512.06;5070767;28;20481;-37
2022/02/04 09:05:09;;;;;;;23.15;3.50;;;;;;;7.63;100.00;100519.81;5070706;28;20056;-39
2022/02/04 09:07:48;;;;;;;27.30;3.72;;;;;;;7.66;100.00;100505.38;5070226;28;20072;-34
2022/02/04 09:10:21;;;;;;;25.85;3.72;;;;;;;7.65;100.00;100503.69;5070913;28;20040;-35
2022/02/04 09:23:56;;;;;;;22.70;3.33;;;;;;;7.69;100.00;100481.75;5063246;28;20059;-40
2022/02/04 09:26:25;;;;;;;32.53;4.80;;;;;;;7.70;100.00;100475.91;5070728;28;20466;-31
2022/02/04 09:28:54;;;;;;;20.15;3.65;;;;;;;7.73;100.00;100480.06;5069853;28;20037;-38
2022/02/04 09:31:22;;;;;;;29.20;3.65;;;;;;;7.75;100.00;100473.09;5070242;28;20048;-41
2022/02/04 09:33:50;;;;;;;25.48;3.47;;;;;;;7.75;100.00;100472.25;5070007;28;20075;-36
2022/02/04 09:36:17;;;;;;;30.25;4.13;;;;;;;7.77;100.00;100473.63;5070043;28;20053;-39
2022/02/04 09:38:45;;;;;;;29.25;3.83;;;;;;;7.79;100.00;100478.91;5070655;28;20056;-37
2022/02/04 09:41:13;;;;;;;24.67;3.78;;;;;;;7.76;100.00;100471.16;5070202;28;20055;-37
2022/02/04 09:43:40;;;;;;;29.77;4.07;;;;;;;7.77;100.00;100475.59;5069794;28;20440;-38
2022/02/04 09:46:10;;;;;;;21.75;3.20;;;;;;;7.77;100.00;100454.19;5070291;28;20053;-40
2022/02/04 09:48:39;;;;;;;21.08;3.72;;;;;;;7.78;100.00;100491.97;5069298;28;20070;-35
2022/02/04 09:51:07;;;;;;;26.15;3.30;;;;;;;7.76;100.00;100457.25;5069434;28;20486;-37
2022/02/04 10:08:02;;;;;;;21.05;3.22;;;;;;;7.67;100.00;100447.88;5031783;28;20068;-37
2022/02/04 10:16:34;;;;;;;27.38;4.68;;;;;;;7.64;100.00;100445.69;5071770;28;20044;-37
2022/02/04 10:19:14;;;;;;;31.17;4.10;;;;;;;7.64;100.00;100421.50;5073157;28;20045;-34
2022/02/04 10:21:41;;;;;;;24.20;3.42;;;;;;;7.64;100.00;100449.28;5063337;28;20051;-35
2022/02/04 10:24:10;;;;;;;25.50;4.00;;;;;;;7.67;100.00;100439.53;5072589;28;20493;-39
2022/02/04 10:26:39;;;;;;;20.55;3.22;;;;;;;7.66;100.00;100432.34;5073866;28;20462;-39
2022/02/04 10:29:07;;;;;;;30.75;4.25;;;;;;;7.62;100.00;100440.41;5073629;28;20051;-38
2022/02/04 10:31:34;;;;;;;25.17;3.53;;;;;;;7.61;100.00;100433.19;5072626;28;20497;-37
2022/02/04 10:34:08;;;;;;;24.17;3.75;;;;;;;7.66;100.00;100429.56;5073571;28;20049;-42
2022/02/04 10:36:47;;;;;;;24.02;4.10;;;;;;;7.61;100.00;100420.16;5072891;28;20091;-35
2022/02/04 10:39:30;;;;;;;38.65;5.20;;;;;;;7.59;100.00;100419.59;5062858;28;20045;-36
2022/02/04 10:42:16;;;;;;;25.25;3.72;;;;;;;7.57;100.00;100407.16;5070481;28;20132;-40
2022/02/04 10:45:00;;;;;;;26.48;4.13;;;;;;;7.54;100.00;100407.72;5073452;28;20056;-44
2022/02/04 10:47:39;;;;;;;29.52;4.07;;;;;;;7.53;100.00;100418.00;5072871;28;20059;-37
2022/02/04 10:50:40;;;;;;;29.15;4.35;;;;;;;7.54;100.00;100405.78;5073431;28;20048;-36
2022/02/04 10:53:28;;;;;;;36.22;4.32;;;;;;;7.52;100.00;100405.25;5065128;28;20041;-38
2022/02/04 10:56:17;;;;;;;28.65;3.80;;;;;;;7.50;100.00;100401.94;5073290;28;20058;-38
2022/02/04 10:59:07;;;;;;;31.05;4.57;;;;;;;7.51;100.00;100386.94;5073087;28;20068;-38
2022/02/04 11:01:48;;;;;;;24.65;3.67;;;;;;;7.51;100.00;100386.94;5066401;28;20048;-42
2022/02/04 11:04:24;;;;;;;29.67;4.63;;;;;;;7.51;100.00;100381.38;5073300;28;20048;-36
2022/02/04 11:07:10;;;;;;;23.65;3.85;;;;;;;7.50;100.00;100379.72;5072370;28;20037;-39
2022/02/04 11:09:52;;;;;;;24.95;3.83;;;;;;;7.46;100.00;100389.75;5072389;28;20044;-40
2022/02/04 11:35:15;;;;;;;24.50;4.43;;;;;;;7.28;100.00;100317.47;5062866;28;20063;-37
2022/02/04 11:43:50;;;;;;;23.98;3.88;;;;;;;7.26;100.00;100346.31;5071278;28;20048;-40
2022/02/04 11:52:02;;;;;;;;;;;;;;;6.87;100.00;100378.78;5063108;28;20044;-35
2022/02/04 11:54:40;;;;;;;12.40;1.42;;;;;;;6.69;100.00;100393.31;5070142;28;19927;-40
2022/02/04 11:57:18;;;;;;;8.32;1.35;;;;;;;6.50;100.00;100385.63;5071434;28;20047;-39
2022/02/04 11:59:47;;;;;;;10.95;0.80;;;;;;;6.33;100.00;100398.19;5071776;28;20052;-38
2022/02/04 12:02:36;;;;;;;7.22;1.10;;;;;;;6.23;100.00;100386.00;5071978;28;20052;-35
2022/02/04 12:05:33;;;;;;;9.85;1.23;;;;;;;6.08;100.00;100404.63;5061238;28;20048;-39
2022/02/04 12:08:25;;;;;;;5.13;0.90;;;;;;;5.91;100.00;100404.09;5071641;28;20051;-41
2022/02/04 12:11:00;;;;;;;7.95;1.20;;;;;;;5.80;100.00;100415.13;5070847;28;20052;-38
2022/02/04 12:13:30;;;;;;;7.93;0.85;;;;;;;5.73;100.00;100419.31;5071471;28;20040;-33
2022/02/04 12:16:06;;;;;;;5.47;0.90;;;;;;;5.65;100.00;100426.22;5071748;28;20055;-38
2022/02/04 12:19:05;;;;;;;7.05;0.95;;;;;;;5.60;100.00;100419.84;5070805;28;20389;-36
2022/02/04 12:21:44;;;;;;;8.43;0.90;;;;;;;5.52;100.00;100433.16;5071526;28;20045;-40
2022/02/04 12:24:32;;;;;;;5.25;0.70;;;;;;;5.44;100.00;100442.00;5070927;28;20036;-37
2022/02/04 12:27:34;;;;;;;5.05;0.60;;;;;;;5.38;100.00;100428.47;5071233;28;20091;-36
2022/02/04 12:30:44;;;;;;;7.53;0.60;;;;;;;5.29;100.00;100436.47;5071451;28;20143;-36
2022/02/04 12:33:17;;;;;;;3.85;0.40;;;;;;;5.28;100.00;100442.25;5062421;28;20049;-34
2022/02/04 12:35:45;;;;;;;7.30;1.00;;;;;;;5.26;100.00;100448.06;5068662;28;20044;-35
2022/02/04 12:38:12;;;;;;;2.90;0.50;;;;;;;5.23;100.00;100437.53;5070354;28;20605;-30
2022/02/04 12:40:40;;;;;;;2.58;0.38;;;;;;;5.15;100.00;100461.06;5070285;28;20052;-36
2022/02/04 12:43:09;;;;;;;5.88;0.60;;;;;;;5.12;100.00;100455.25;5071388;28;20040;-42
2022/02/04 12:45:42;;;;;;;4.28;0.60;;;;;;;5.07;100.00;100458.81;5070191;28;20114;-37
2022/02/04 12:48:10;;;;;;;2.60;0.40;;;;;;;5.02;100.00;100457.97;5071463;28;20132;-40
2022/02/04 12:50:41;;;;;;;5.60;0.70;;;;;;;4.96;100.00;100461.84;5071235;28;20067;-40
2022/02/04 12:53:09;;;;;;;3.78;0.60;;;;;;;4.91;100.00;100464.59;5070320;28;20048;-34
2022/02/04 12:56:00;;;;;;;5.18;0.60;;;;;;;4.85;100.00;100477.53;5071199;28;20052;-38
2022/02/04 12:58:55;;;;;;;5.45;0.60;;;;;;;4.80;100.00;100477.53;5068296;28;20083;-38
2022/02/04 13:09:52;;;;;;;6.07;0.73;;;;;;;4.71;100.00;100487.44;5070984;28;20036;-43
2022/02/04 13:12:20;;;;;;;3.33;0.73;;;;;;;4.70;100.00;100496.84;5071089;28;20047;-30
2022/02/04 13:14:49;;;;;;;2.88;0.63;;;;;;;4.69;100.00;100495.19;5069769;28;20378;-37
2022/02/04 13:17:34;;;;;;;4.78;0.65;;;;;;;4.65;100.00;100496.81;5070818;28;20072;-35
2022/02/04 13:20:03;;;;;;;5.18;0.60;;;;;;;4.61;100.00;100490.16;5070235;28;20045;-42
2022/02/04 13:22:33;;;;;;;5.70;0.70;;;;;;;4.59;100.00;100495.13;5070892;28;20056;-40
2022/02/04 13:25:09;;;;;;;8.80;0.90;;;;;;;4.62;100.00;100505.63;5070777;28;20047;-36
2022/02/04 13:27:37;;;;;;;3.45;0.50;;;;;;;4.63;100.00;100502.59;5069932;28;20106;-38
2022/02/04 13:30:21;;;;;;;3.42;0.57;;;;;;;4.63;100.00;100504.53;5070822;28;20302;-41
2022/02/04 13:32:49;;;;;;;6.45;1.00;;;;;;;4.60;100.00;100507.81;5069707;28;20381;-38
2022/02/04 13:35:28;;;;;;;5.75;0.70;;;;;;;4.58;100.00;100510.88;5069848;28;20048;-33
2022/02/04 13:38:04;;;;;;;5.43;0.50;;;;;;;4.54;100.00;100517.22;5068844;28;20041;-35
2022/02/04 13:41:03;;;;;;;4.35;0.50;;;;;;;4.52;100.00;100535.97;5074860;28;20051;-38
2022/02/04 13:43:42;;;;;;;2.58;0.30;;;;;;;4.44;100.00;100529.84;5065033;28;20058;-37
2022/02/04 13:46:19;;;;;;;7.63;0.73;;;;;;;4.36;100.00;100532.31;5074314;28;20048;-34
2022/02/04 13:49:02;;;;;;;4.00;0.52;;;;;;;4.33;100.00;100543.88;5073977;28;20400;-37
2022/02/04 13:51:43;;;;;;;4.05;0.50;;;;;;;4.31;100.00;100537.78;5074576;28;20055;-40
2022/02/04 13:54:26;;;;;;;6.57;0.88;;;;;;;4.31;100.00;100549.66;5074377;28;20072;-33
2022/02/04 13:57:11;;;;;;;4.82;1.10;;;;;;;4.31;100.00;100557.94;5073176;28;20115;-38
2022/02/04 13:59:45;;;;;;;2.42;0.57;;;;;;;4.31;100.00;100552.44;5074351;28;20046;-38
2022/02/04 14:02:18;;;;;;;8.45;1.60;;;;;;;4.32;100.00;100554.09;5063704;28;20045;-33
2022/02/04 14:04:58;;;;;;;4.97;1.20;;;;;;;4.30;100.00;100570.09;5073045;28;20044;-37
2022/02/04 14:07:39;;;;;;;7.55;1.20;;;;;;;4.29;100.00;100584.16;5065240;28;20082;-38
2022/02/04 14:10:27;;;;;;;9.23;1.17;;;;;;;4.27;100.00;100581.66;5073690;28;20056;-43
2022/02/04 14:12:59;;;;;;;5.65;0.57;;;;;;;4.26;100.00;100593.81;5067869;28;20062;-37
2022/02/04 14:15:29;;;;;;;6.25;0.95;;;;;;;4.21;100.00;100593.75;5073630;28;20051;-34
2022/02/04 14:17:57;;;;;;;3.38;0.50;;;;;;;4.17;100.00;100595.41;5073399;28;20067;-39
2022/02/04 14:20:25;;;;;;;10.55;0.90;;;;;;;4.17;100.00;100603.69;5073789;28;20048;-41
2022/02/04 14:22:53;;;;;;;3.63;0.60;;;;;;;4.18;100.00;100615.56;5073830;28;20485;-36
2022/02/04 14:25:22;;;;;;;6.57;0.90;;;;;;;4.18;100.00;100607.28;5072894;28;20040;-38
2022/02/04 14:27:54;;;;;;;4.57;0.70;;;;;;;4.17;100.00;100622.19;5073530;28;20055;-37
2022/02/04 14:30:27;;;;;;;;;;;;;;;4.10;100.00;100609.41;5073491;28;20057;-37
2022/02/04 14:32:59;;;;;;;6.57;0.60;;;;;;;4.07;100.00;100625.69;5073711;28;19920;-39
2022/02/04 14:35:38;;;;;;;;;;;;;;;4.04;100.00;100626.19;5073925;28;20052;-34
2022/02/04 14:52:24;;;;;;;8.88;1.02;;;;;;;4.17;100.00;100661.69;5053095;28;20137;-37
2022/02/04 15:03:17;;;;;;;4.90;1.17;;;;;;;4.29;100.00;100659.56;5070175;28;20048;-38
2022/02/04 15:05:48;;;;;;;3.78;0.85;;;;;;;4.33;100.00;100669.00;5068519;28;20493;-40
2022/02/04 15:08:19;;;;;;;5.45;0.95;;;;;;;4.36;100.00;100665.72;5072148;28;20063;-38
2022/02/04 15:10:48;;;;;;;6.03;1.55;;;;;;;4.38;100.00;100682.03;5069662;28;20059;-37
2022/02/04 15:13:18;;;;;;;7.13;1.30;;;;;;;4.40;100.00;100685.34;5071436;28;20127;-33
2022/02/04 15:15:47;;;;;;;8.55;1.50;;;;;;;4.41;100.00;100685.06;5071108;28;20044;-33
2022/02/04 15:18:15;;;;;;;7.95;1.00;;;;;;;4.43;100.00;100693.94;5072114;28;20045;-40
2022/02/04 15:20:43;;;;;;;5.75;0.98;;;;;;;4.44;100.00;100701.13;5071085;28;20048;-37
2022/02/04 15:23:13;;;;;;;5.93;0.82;;;;;;;4.46;100.00;100698.94;5068314;28;20037;-33
2022/02/04 15:25:41;;;;;;;6.10;0.65;;;;;;;4.48;100.00;100707.81;5071495;28;20055;-39
2022/02/04 15:28:31;;;;;;;6.43;0.95;;;;;;;4.51;100.00;100700.94;5070172;28;20408;-34
2022/02/04 15:31:00;;;;;;;6.72;0.90;;;;;;;4.52;100.00;100708.13;5071588;28;20139;-37
2022/02/04 15:33:33;;;;;;;6.15;0.82;;;;;;;4.55;100.00;100721.41;5070970;28;20052;-44
2022/02/04 15:36:01;;;;;;;5.88;0.90;;;;;;;4.57;100.00;100715.63;5071597;28;20444;-40
2022/02/04 15:38:29;;;;;;;7.88;0.90;;;;;;;4.61;100.00;100709.28;5071287;28;20052;-36
2022/02/04 15:40:58;;;;;;;10.55;1.13;;;;;;;4.65;100.00;100704.06;5069996;28;20060;-42
2022/02/04 15:43:29;;;;;;;9.63;1.30;;;;;;;4.66;100.00;100705.75;5070910;28;20409;-33
2022/02/04 15:51:58;;;;;;;12.52;1.85;;;;;;;4.71;100.00;100730.66;5071021;28;20044;-38
2022/02/04 15:54:43;;;;;;;11.75;1.50;;;;;;;4.73;100.00;100731.25;5069396;28;20104;-39
2022/02/04 15:57:31;;;;;;;12.23;1.80;;;;;;;4.77;100.00;100727.69;5070914;28;20505;-35
2022/02/04 16:00:29;;;;;;;16.83;2.33;;;;;;;4.84;100.00;100742.09;5061142;28;20442;-42
2022/02/04 16:03:17;;;;;;;14.02;2.33;;;;;;;4.88;100.00;100731.34;5069012;28;20048;-38
2022/02/04 16:05:47;;;;;;;13.90;2.58;;;;;;;4.89;100.00;100749.59;5070408;28;20054;-41